Time;durP1;ratioP1;P1;durP2;ratioP2;P2;SDS_P1;SDS_P2;PMS_P1;PMS_P2;Temp;Humidity;BMP_temperature;BMP_pressure;BME280_temperature;BME280_humidity;BME280_pressure;Samples;Min_cycle;Max_cycle;Signal;HPM_P1;HPM_P2
2022/11/24 00:02:38;;;;;;;6.00;3.00;;;9.50;99.90;;;;;;10527275;28;20126;-61
2022/11/24 00:07:39;;;;;;;4.32;2.72;;;9.40;99.90;;;;;;10520419;28;20492;-63
2022/11/24 00:12:40;;;;;;;7.32;3.05;;;9.40;99.90;;;;;;10505916;28;20040;-62
2022/11/24 00:17:40;;;;;;;8.20;3.15;;;9.50;99.90;;;;;;10524654;28;20094;-62
2022/11/24 00:22:41;;;;;;;5.57;2.80;;;9.40;99.90;;;;;;10522184;28;20302;-63
2022/11/24 00:27:41;;;;;;;5.20;2.72;;;9.40;99.90;;;;;;10515805;28;20054;-62
2022/11/24 00:32:42;;;;;;;4.82;2.38;;;9.40;99.90;;;;;;10525799;28;20032;-61
2022/11/24 00:37:43;;;;;;;9.40;3.10;;;9.40;99.90;;;;;;10526135;28;20111;-62
2022/11/24 00:42:43;;;;;;;6.63;2.78;;;9.40;99.90;;;;;;10525694;28;20400;-64
2022/11/24 00:47:44;;;;;;;6.10;2.25;;;9.40;99.90;;;;;;10521867;28;20020;-61
2022/11/24 00:52:45;;;;;;;4.88;2.65;;;9.40;99.90;;;;;;10520713;28;20106;-62
2022/11/24 00:57:45;;;;;;;6.40;2.30;;;9.40;99.90;;;;;;10507401;28;20020;-61
2022/11/24 01:02:46;;;;;;;8.48;2.70;;;9.40;99.90;;;;;;10500680;28;20036;-62
2022/11/24 01:07:47;;;;;;;5.25;2.38;;;9.40;99.90;;;;;;10517073;28;20119;-61
2022/11/24 01:12:49;;;;;;;5.25;2.50;;;9.40;99.90;;;;;;10515791;28;20515;-62
2022/11/24 01:17:49;;;;;;;6.53;2.40;;;9.40;99.90;;;;;;10442034;28;20052;-61
2022/11/24 01:22:50;;;;;;;4.47;2.17;;;9.40;99.90;;;;;;10435606;28;20038;-61
2022/11/24 01:27:51;;;;;;;8.07;2.28;;;9.70;99.90;;;;;;10417584;28;20018;-62
2022/11/24 01:32:52;;;;;;;5.93;2.20;;;9.40;99.90;;;;;;10413179;28;20035;-62
2022/11/24 01:37:52;;;;;;;9.35;2.75;;;9.40;99.90;;;;;;10424984;28;20459;-62
2022/11/24 01:42:53;;;;;;;5.85;2.38;;;9.40;99.90;;;;;;10418846;28;20021;-62
2022/11/24 01:47:54;;;;;;;4.78;2.05;;;9.40;99.90;;;;;;10418973;28;20017;-61
2022/11/24 01:52:56;;;;;;;9.02;2.20;;;9.40;99.90;;;;;;10425379;28;20528;-61
2022/11/24 01:58:18;;;;;;;6.60;2.40;;;9.40;99.90;;;;;;10427496;28;20025;-62
2022/11/24 02:03:25;;;;;;;6.30;2.30;;;9.40;99.90;;;;;;10426731;28;20087;-62
2022/11/24 02:08:38;;;;;;;5.35;2.22;;;9.40;99.90;;;;;;10413592;28;20022;-64
2022/11/24 02:13:40;;;;;;;6.85;2.30;;;9.40;99.90;;;;;;10430407;28;20184;-63
2022/11/24 02:18:42;;;;;;;8.25;2.10;;;9.40;99.90;;;;;;10521540;28;20066;-61
2022/11/24 02:24:12;;;;;;;6.18;1.70;;;9.40;99.90;;;;;;10531465;28;20043;-61
2022/11/24 02:29:13;;;;;;;5.90;1.80;;;9.40;99.90;;;;;;10524590;28;20055;-61
2022/11/24 02:34:14;;;;;;;5.55;2.35;;;9.40;99.90;;;;;;10530751;28;20020;-61
2022/11/24 02:39:15;;;;;;;6.75;1.90;;;9.40;99.90;;;;;;10530486;28;20098;-61
2022/11/24 02:44:18;;;;;;;7.97;1.92;;;9.40;99.90;;;;;;10525132;28;20036;-62
2022/11/24 02:49:19;;;;;;;4.32;1.60;;;9.40;99.90;;;;;;10528609;28;20063;-61
2022/11/24 02:54:20;;;;;;;5.82;1.88;;;9.50;99.90;;;;;;10496692;28;20066;-62
2022/11/24 02:59:21;;;;;;;4.13;1.65;;;9.40;99.90;;;;;;10501967;28;20036;-61
2022/11/24 03:04:21;;;;;;;7.50;1.95;;;9.40;99.90;;;;;;10529052;28;20271;-61
2022/11/24 03:09:22;;;;;;;3.97;1.80;;;9.40;99.90;;;;;;10530377;28;20122;-61
2022/11/24 03:14:23;;;;;;;7.53;1.75;;;9.40;99.90;;;;;;10528608;28;20089;-62
2022/11/24 03:19:23;;;;;;;4.22;1.50;;;9.40;99.90;;;;;;10513204;28;20036;-62
2022/11/24 03:24:24;;;;;;;6.85;2.13;;;9.40;99.90;;;;;;10526341;28;20074;-62
2022/11/24 03:29:25;;;;;;;4.20;1.88;;;9.40;99.90;;;;;;10527434;28;20012;-62
2022/11/24 03:34:26;;;;;;;6.45;2.00;;;9.40;99.90;;;;;;10528448;28;20027;-62
2022/11/24 03:39:26;;;;;;;6.10;1.70;;;9.30;99.90;;;;;;10520095;28;20396;-62
2022/11/24 03:44:27;;;;;;;6.13;1.67;;;9.40;99.90;;;;;;10528375;28;20332;-62
2022/11/24 03:49:28;;;;;;;7.55;2.40;;;9.40;99.90;;;;;;10518762;28;20033;-62
2022/11/24 03:54:28;;;;;;;6.90;1.65;;;9.40;99.90;;;;;;10490526;28;20024;-63
2022/11/24 03:59:29;;;;;;;6.60;1.67;;;9.40;99.90;;;;;;10528030;28;20050;-61
2022/11/24 04:04:30;;;;;;;4.95;1.75;;;9.30;99.90;;;;;;10527396;28;20020;-62
2022/11/24 04:09:30;;;;;;;7.07;1.92;;;9.30;99.90;;;;;;10527605;28;20059;-62
2022/11/24 04:14:31;;;;;;;5.45;1.48;;;9.40;99.90;;;;;;10526026;28;20008;-62
2022/11/24 04:19:32;;;;;;;4.53;1.48;;;9.30;99.90;;;;;;10518499;28;20040;-62
2022/11/24 04:24:32;;;;;;;5.78;1.50;;;9.30;99.90;;;;;;10526103;28;20495;-62
2022/11/24 04:29:33;;;;;;;5.00;1.65;;;9.40;99.90;;;;;;10526918;28;20058;-62
2022/11/24 04:34:34;;;;;;;6.82;1.58;;;9.40;99.90;;;;;;10512207;28;20028;-62
2022/11/24 04:39:35;;;;;;;5.20;1.42;;;9.40;99.90;;;;;;10513294;28;20044;-61
2022/11/24 04:44:36;;;;;;;4.30;1.48;;;9.40;99.90;;;;;;10520714;28;20369;-62
2022/11/24 04:49:36;;;;;;;5.07;1.38;;;9.30;99.90;;;;;;10525820;28;20020;-62
2022/11/24 04:54:37;;;;;;;5.82;1.63;;;9.40;99.90;;;;;;10514969;28;20020;-62
2022/11/24 04:59:38;;;;;;;7.45;1.50;;;9.40;99.90;;;;;;10525934;28;20561;-62
2022/11/24 05:04:39;;;;;;;4.10;1.23;;;9.30;99.90;;;;;;10525515;28;20035;-62
2022/11/24 05:10:33;;;;;;;7.78;2.25;;;9.30;99.90;;;;;;10525497;28;20025;-62
2022/11/24 05:15:01;;;;;;;3.80;1.55;;;9.30;99.90;;;;;;10515405;28;20047;-62
2022/11/24 05:20:04;;;;;;;4.97;1.38;;;9.30;99.90;;;;;;10522614;28;20039;-64
2022/11/24 05:25:04;;;;;;;4.50;1.67;;;9.30;99.90;;;;;;10514036;28;20035;-62
2022/11/24 05:30:06;;;;;;;6.20;1.55;;;9.30;99.90;;;;;;10516889;28;20035;-62
2022/11/24 05:35:08;;;;;;;7.10;1.60;;;9.30;99.90;;;;;;10518863;28;20016;-64
2022/11/24 05:40:09;;;;;;;3.25;1.13;;;9.30;99.90;;;;;;10512849;28;20064;-62
2022/11/24 05:45:13;;;;;;;3.10;1.27;;;9.30;99.90;;;;;;10531636;28;20123;-60
2022/11/24 05:50:17;;;;;;;3.33;1.15;;;9.30;99.90;;;;;;10517176;28;20050;-62
2022/11/24 05:55:18;;;;;;;3.58;1.25;;;9.30;99.90;;;;;;10530883;28;20032;-61
2022/11/24 06:00:19;;;;;;;4.65;1.40;;;9.30;99.90;;;;;;10532508;28;20539;-61
2022/11/24 06:05:19;;;;;;;5.78;1.60;;;9.30;99.90;;;;;;10518226;28;20031;-62
2022/11/24 06:10:22;;;;;;;2.97;1.17;;;9.30;99.90;;;;;;10527596;28;20021;-61
2022/11/24 06:15:23;;;;;;;3.60;1.58;;;9.30;99.90;;;;;;10527103;28;20044;-62
2022/11/24 06:20:24;;;;;;;3.08;1.15;;;9.30;99.90;;;;;;10523947;28;20036;-62
2022/11/24 06:25:25;;;;;;;5.07;1.50;;;9.30;99.90;;;;;;10520816;28;20468;-62
2022/11/24 06:30:26;;;;;;;5.88;1.95;;;9.30;99.90;;;;;;10531188;28;20532;-61
2022/11/24 06:35:26;;;;;;;6.30;1.60;;;9.30;99.90;;;;;;10530450;28;20024;-63
2022/11/24 06:40:27;;;;;;;10.57;1.42;;;9.40;99.90;;;;;;10529430;28;20492;-62
2022/11/24 06:45:28;;;;;;;3.17;1.27;;;9.30;99.90;;;;;;10530044;28;20035;-61
2022/11/24 06:50:28;;;;;;;6.43;1.35;;;9.30;99.90;;;;;;10526024;28;20071;-62
2022/11/24 06:55:29;;;;;;;4.65;1.38;;;9.40;99.90;;;;;;10529190;28;20008;-61
2022/11/24 07:00:32;;;;;;;5.00;1.20;;;9.30;99.90;;;;;;10530134;28;20036;-62
2022/11/24 07:05:33;;;;;;;4.85;1.45;;;9.30;99.90;;;;;;10518771;28;20078;-61
2022/11/24 07:10:34;;;;;;;3.85;1.20;;;9.30;99.90;;;;;;10522309;28;20404;-62
2022/11/24 07:15:35;;;;;;;3.72;1.30;;;9.30;99.90;;;;;;10529002;28;20036;-62
2022/11/24 07:20:35;;;;;;;5.05;1.98;;;9.30;99.90;;;;;;10499357;28;20439;-61
2022/11/24 07:25:36;;;;;;;2.90;1.40;;;9.30;99.90;;;;;;10502315;28;20020;-61
2022/11/24 07:30:37;;;;;;;8.32;1.75;;;9.30;99.90;;;;;;10499203;28;20427;-61
2022/11/24 07:35:38;;;;;;;2.65;1.33;;;9.40;99.90;;;;;;10512948;28;20494;-61
2022/11/24 07:40:38;;;;;;;5.35;1.70;;;9.40;99.90;;;;;;10511867;28;20574;-60
2022/11/24 07:45:39;;;;;;;5.60;1.58;;;9.40;99.90;;;;;;10436767;28;20029;-61
2022/11/24 07:50:40;;;;;;;5.80;1.48;;;9.50;99.90;;;;;;10413296;28;20044;-61
2022/11/24 07:55:40;;;;;;;5.78;1.77;;;9.90;99.90;;;;;;10414841;28;20402;-61
2022/11/24 08:00:41;;;;;;;7.18;2.05;;;9.50;99.90;;;;;;10432880;28;20040;-61
2022/11/24 08:05:42;;;;;;;3.50;1.60;;;9.40;99.90;;;;;;10427056;28;20457;-61
2022/11/24 08:10:43;;;;;;;2.28;1.40;;;9.40;99.90;;;;;;10442446;28;20295;-61
2022/11/24 08:15:44;;;;;;;7.85;1.70;;;9.40;99.90;;;;;;10428495;28;20445;-61
2022/11/24 08:20:44;;;;;;;7.13;2.20;;;9.40;99.90;;;;;;10412135;28;20539;-60
2022/11/24 08:25:45;;;;;;;3.20;1.30;;;9.40;99.90;;;;;;10415900;28;20548;-60
2022/11/24 08:30:47;;;;;;;3.35;1.70;;;9.40;99.90;;;;;;10430418;28;20016;-60
2022/11/24 08:35:48;;;;;;;3.25;1.50;;;9.40;99.90;;;;;;10448793;28;20423;-61
2022/11/24 08:40:49;;;;;;;3.72;1.20;;;9.40;99.90;;;;;;10431944;28;20556;-61
2022/11/24 08:45:49;;;;;;;4.30;1.50;;;9.50;99.90;;;;;;10434837;28;20024;-62
2022/11/24 08:50:50;;;;;;;3.75;1.48;;;9.60;99.90;;;;;;10434879;28;20973;-65
2022/11/24 08:55:51;;;;;;;3.58;1.52;;;9.70;99.90;;;;;;10429253;28;20500;-62
2022/11/24 09:00:51;;;;;;;4.93;1.20;;;9.90;99.90;;;;;;10428220;28;20553;-62
2022/11/24 09:05:52;;;;;;;3.35;1.13;;;9.80;99.90;;;;;;10419113;28;20530;-62
2022/11/24 09:10:57;;;;;;;4.68;1.40;;;9.80;99.90;;;;;;10437684;28;20433;-61
2022/11/24 09:16:10;;;;;;;3.25;1.27;;;9.80;99.90;;;;;;10434536;28;20556;-62
2022/11/24 09:21:12;;;;;;;2.83;1.30;;;9.80;99.90;;;;;;10431482;28;20071;-67
2022/11/24 09:26:15;;;;;;;3.63;1.50;;;9.80;99.90;;;;;;10443484;28;20444;-62
2022/11/24 09:31:16;;;;;;;2.53;1.17;;;9.80;99.90;;;;;;10447924;28;20031;-63
2022/11/24 09:36:18;;;;;;;1.75;1.10;;;9.90;99.90;;;;;;10446321;28;20022;-61
2022/11/24 09:41:52;;;;;;;6.03;1.67;;;9.90;99.90;;;;;;10449414;28;20028;-61
2022/11/24 09:47:05;;;;;;;3.67;1.40;;;9.80;99.90;;;;;;10427455;28;20464;-61
2022/11/24 09:52:15;;;;;;;2.65;1.45;;;9.90;99.90;;;;;;10441959;28;20601;-62
2022/11/24 09:57:19;;;;;;;3.15;1.50;;;10.20;99.90;;;;;;10443228;28;20036;-61
2022/11/24 10:02:19;;;;;;;1.92;1.27;;;9.90;99.90;;;;;;10434015;28;20045;-61
2022/11/24 10:07:28;;;;;;;4.75;1.80;;;10.00;99.90;;;;;;10434714;28;20272;-61
2022/11/24 10:12:53;;;;;;;3.03;1.70;;;10.00;99.90;;;;;;10448456;28;20229;-65
2022/11/24 10:18:12;;;;;;;4.45;1.80;;;10.10;99.90;;;;;;10443306;28;20135;-61
2022/11/24 10:23:41;;;;;;;3.22;1.80;;;10.10;99.90;;;;;;10444580;28;20084;-61
2022/11/24 10:28:51;;;;;;;3.90;1.98;;;10.20;99.90;;;;;;10443452;28;20067;-62
2022/11/24 10:33:51;;;;;;;5.05;1.70;;;10.20;99.90;;;;;;10449996;28;20066;-61
2022/11/24 10:39:29;;;;;;;3.85;1.83;;;10.20;99.90;;;;;;10447016;28;20384;-61
2022/11/24 10:44:30;;;;;;;3.58;1.88;;;10.30;99.90;;;;;;10358344;28;20392;-62
2022/11/24 10:49:32;;;;;;;3.85;1.90;;;10.30;99.90;;;;;;10441475;28;20020;-61
2022/11/24 10:54:34;;;;;;;5.43;2.17;;;10.40;99.90;;;;;;10442240;28;20122;-62
2022/11/24 10:59:37;;;;;;;8.75;2.17;;;10.40;99.90;;;;;;10448717;28;20567;-62
2022/11/24 11:04:37;;;;;;;4.88;2.13;;;10.50;99.90;;;;;;10436261;28;20087;-63
2022/11/24 11:09:38;;;;;;;3.40;1.92;;;10.50;99.90;;;;;;10422363;28;20051;-63
2022/11/24 11:14:39;;;;;;;4.45;1.95;;;10.50;99.90;;;;;;10432353;28;20334;-62
2022/11/24 11:19:46;;;;;;;3.58;2.05;;;10.60;99.90;;;;;;10441662;28;20384;-64
2022/11/24 11:25:24;;;;;;;2.38;1.48;;;10.60;99.90;;;;;;10444466;28;20031;-63
2022/11/24 11:30:29;;;;;;;3.13;1.70;;;10.70;99.90;;;;;;10429810;28;20435;-63
2022/11/24 11:35:32;;;;;;;3.92;2.10;;;10.70;99.90;;;;;;10444949;28;20481;-62
2022/11/24 11:40:34;;;;;;;3.08;1.75;;;10.70;99.90;;;;;;10443188;28;20067;-62
2022/11/24 11:45:41;;;;;;;5.15;1.90;;;10.70;99.90;;;;;;10444375;28;20139;-62
2022/11/24 11:50:53;;;;;;;3.92;1.90;;;10.70;99.90;;;;;;10438559;28;20028;-63
2022/11/24 11:56:01;;;;;;;4.10;1.80;;;10.70;99.90;;;;;;10441441;28;20031;-62
2022/11/24 12:01:18;;;;;;;4.90;1.70;;;10.70;99.90;;;;;;10437139;28;20499;-62
2022/11/24 12:06:24;;;;;;;3.28;1.38;;;10.70;99.90;;;;;;10438583;28;20441;-62
2022/11/24 12:11:31;;;;;;;4.53;1.88;;;10.80;99.90;;;;;;10441168;28;20059;-62
2022/11/24 12:16:40;;;;;;;3.92;1.85;;;10.70;99.90;;;;;;10425887;28;20534;-62
2022/11/24 12:22:08;;;;;;;6.05;1.50;;;10.80;99.90;;;;;;10435044;28;20088;-67
2022/11/24 12:27:11;;;;;;;4.57;1.75;;;10.70;99.90;;;;;;10442626;28;20091;-62
2022/11/24 12:32:27;;;;;;;7.53;1.50;;;10.80;99.90;;;;;;10441801;28;20358;-62
2022/11/24 12:37:40;;;;;;;7.20;1.75;;;11.00;99.90;;;;;;10421863;28;20203;-64
2022/11/24 12:43:02;;;;;;;3.33;1.33;;;10.70;99.90;;;;;;10429601;28;20064;-61
2022/11/24 12:48:15;;;;;;;4.32;1.50;;;10.80;99.90;;;;;;10430664;28;20611;-63
2022/11/24 12:53:25;;;;;;;5.32;1.58;;;10.80;99.90;;;;;;10434201;28;21287;-62
2022/11/24 12:58:38;;;;;;;3.53;1.33;;;10.80;99.90;;;;;;10422688;28;20428;-62
2022/11/24 13:04:17;;;;;;;5.10;1.40;;;10.80;99.90;;;;;;10428101;28;20961;-62
2022/11/24 13:09:18;;;;;;;3.43;1.50;;;10.80;99.90;;;;;;10431852;28;20128;-62
2022/11/24 13:14:30;;;;;;;3.15;1.33;;;10.80;99.90;;;;;;10423146;28;20880;-68
2022/11/24 13:19:34;;;;;;;2.92;1.10;;;10.80;99.90;;;;;;10437317;28;20511;-62
2022/11/24 13:24:37;;;;;;;5.90;1.48;;;10.80;99.90;;;;;;10440313;28;20027;-62
2022/11/24 13:29:43;;;;;;;5.70;1.63;;;10.80;99.90;;;;;;10444363;28;20359;-62
2022/11/24 13:34:48;;;;;;;4.07;1.27;;;10.80;99.90;;;;;;10433364;28;20036;-63
2022/11/24 13:40:10;;;;;;;2.75;1.20;;;10.80;99.90;;;;;;10444503;28;20028;-62
2022/11/24 13:45:39;;;;;;;3.85;1.00;;;10.80;99.90;;;;;;10451180;28;20574;-62
2022/11/24 13:50:49;;;;;;;7.00;1.55;;;10.80;99.90;;;;;;10449686;28;20053;-61
2022/11/24 13:55:54;;;;;;;5.03;1.73;;;10.80;99.90;;;;;;10451576;28;20417;-63
2022/11/24 14:01:21;;;;;;;8.75;1.23;;;10.80;99.90;;;;;;10452780;28;20047;-62
2022/11/24 14:06:59;;;;;;;6.88;1.58;;;10.70;99.90;;;;;;10443459;28;20197;-63
2022/11/24 14:12:13;;;;;;;3.27;1.20;;;10.70;99.90;;;;;;10394266;28;20344;-67
2022/11/24 14:17:26;;;;;;;6.40;1.50;;;10.70;99.90;;;;;;10448607;28;20040;-62
2022/11/24 14:22:39;;;;;;;3.17;1.23;;;10.50;99.90;;;;;;10448289;28;20044;-63
2022/11/24 14:27:40;;;;;;;3.30;1.30;;;10.70;99.90;;;;;;10449594;28;20028;-62
2022/11/24 14:32:56;;;;;;;4.07;1.63;;;10.70;99.90;;;;;;10451378;28;20020;-61
2022/11/24 14:37:57;;;;;;;7.63;1.33;;;10.70;99.90;;;;;;10424957;28;20040;-62
2022/11/24 14:42:58;;;;;;;6.95;1.45;;;10.60;99.90;;;;;;10433705;28;20518;-63
2022/11/24 14:47:58;;;;;;;5.03;1.58;;;10.60;99.90;;;;;;10439586;28;20024;-62
2022/11/24 14:52:59;;;;;;;4.88;1.50;;;10.60;99.90;;;;;;10422312;28;20450;-63
2022/11/24 14:58:00;;;;;;;2.75;1.17;;;10.60;99.90;;;;;;10452572;28;20024;-62
2022/11/24 15:03:01;;;;;;;2.83;1.60;;;10.60;99.90;;;;;;10447830;28;20036;-62
2022/11/24 15:08:02;;;;;;;5.72;1.58;;;10.50;99.90;;;;;;10445524;28;20032;-63
2022/11/24 15:13:13;;;;;;;4.88;1.60;;;10.50;99.90;;;;;;10446725;28;20377;-61
2022/11/24 15:18:41;;;;;;;3.47;1.60;;;10.50;99.90;;;;;;10436045;28;20159;-62
2022/11/24 15:24:02;;;;;;;8.68;1.10;;;10.50;99.90;;;;;;10436419;28;20047;-62
2022/11/24 15:29:03;;;;;;;4.63;1.35;;;10.50;99.90;;;;;;10434082;28;20016;-62
2022/11/24 15:34:03;;;;;;;9.75;2.75;;;10.50;99.90;;;;;;10441774;28;20666;-62
2022/11/24 15:39:04;;;;;;;5.00;1.40;;;10.40;99.90;;;;;;10440819;28;20435;-63
2022/11/24 15:44:06;;;;;;;7.15;1.95;;;10.40;99.90;;;;;;10416085;28;20016;-63
2022/11/24 15:49:07;;;;;;;5.28;1.60;;;10.40;99.90;;;;;;10440052;28;20051;-62
2022/11/24 15:54:12;;;;;;;3.35;1.33;;;10.40;99.90;;;;;;10446547;28;20387;-62
2022/11/24 15:59:16;;;;;;;4.68;1.48;;;10.30;99.90;;;;;;10435380;28;20031;-62
2022/11/24 16:04:17;;;;;;;4.90;1.38;;;10.30;99.90;;;;;;10437005;28;20482;-62
2022/11/24 16:09:18;;;;;;;5.30;1.55;;;10.30;99.90;;;;;;10509771;28;20028;-62
2022/11/24 16:14:18;;;;;;;9.13;1.55;;;10.30;99.90;;;;;;10501592;28;20236;-62
2022/11/24 16:19:19;;;;;;;5.72;1.73;;;10.30;99.90;;;;;;10503451;28;20523;-62
2022/11/24 16:24:20;;;;;;;5.57;1.63;;;10.30;99.90;;;;;;10501617;28;20043;-61
2022/11/24 16:29:22;;;;;;;3.13;1.50;;;10.20;99.90;;;;;;10509165;28;20021;-62
2022/11/24 16:34:24;;;;;;;10.00;1.85;;;10.20;99.90;;;;;;10479678;28;20081;-62
2022/11/24 16:39:24;;;;;;;7.53;1.60;;;10.20;99.90;;;;;;10486200;28;20115;-66
2022/11/24 16:44:25;;;;;;;11.05;2.53;;;10.20;99.90;;;;;;10509331;28;20062;-62
2022/11/24 16:49:27;;;;;;;3.75;1.27;;;10.20;99.90;;;;;;10509418;28;20048;-63
2022/11/24 16:54:28;;;;;;;7.20;1.90;;;10.20;99.90;;;;;;10518496;28;20028;-62
2022/11/24 16:59:28;;;;;;;5.90;1.75;;;10.20;99.90;;;;;;10503497;28;20456;-63
2022/11/24 17:04:30;;;;;;;6.20;2.60;;;10.10;99.90;;;;;;10513502;28;20051;-62
2022/11/24 17:09:31;;;;;;;5.47;1.90;;;10.10;99.90;;;;;;10502243;28;20062;-63
2022/11/24 17:14:32;;;;;;;5.18;1.70;;;10.10;99.90;;;;;;10519051;28;20077;-66
2022/11/24 17:19:33;;;;;;;5.50;1.52;;;10.10;99.90;;;;;;10499352;28;20390;-62
2022/11/24 17:24:33;;;;;;;5.82;1.33;;;10.10;99.90;;;;;;10510120;28;20425;-62
2022/11/24 17:29:34;;;;;;;6.80;2.58;;;10.10;99.90;;;;;;10495020;28;20020;-62
2022/11/24 17:34:35;;;;;;;6.43;1.90;;;10.00;99.90;;;;;;10496633;28;20025;-62
2022/11/24 17:39:35;;;;;;;7.80;1.67;;;10.00;99.90;;;;;;10499065;28;20036;-62
2022/11/24 17:44:36;;;;;;;6.13;1.60;;;10.00;99.90;;;;;;10496981;28;20025;-62
2022/11/24 17:49:37;;;;;;;11.07;1.98;;;10.00;99.90;;;;;;10498868;28;20124;-66
2022/11/24 17:54:38;;;;;;;7.80;1.95;;;10.00;99.90;;;;;;10487938;28;20054;-63
2022/11/24 17:59:39;;;;;;;8.18;2.05;;;10.00;99.90;;;;;;10518293;28;20181;-63
2022/11/24 18:04:39;;;;;;;8.00;2.00;;;9.90;99.90;;;;;;10516190;28;20130;-62
2022/11/24 18:09:40;;;;;;;5.30;1.73;;;9.90;99.90;;;;;;10527210;28;20038;-62
2022/11/24 18:14:41;;;;;;;10.05;2.53;;;9.90;99.90;;;;;;10518672;28;20019;-62
2022/11/24 18:19:41;;;;;;;8.25;2.05;;;9.90;99.90;;;;;;10514639;28;20094;-62
2022/11/24 18:24:42;;;;;;;4.78;1.90;;;9.90;99.90;;;;;;10521692;28;20063;-62
2022/11/24 18:29:43;;;;;;;6.45;2.05;;;9.90;99.90;;;;;;10515948;28;20031;-62
2022/11/24 18:34:44;;;;;;;9.43;2.22;;;9.90;99.90;;;;;;10503751;28;20435;-62
2022/11/24 18:39:44;;;;;;;7.88;2.50;;;9.90;99.90;;;;;;10513084;28;20033;-63
2022/11/24 18:44:45;;;;;;;4.78;1.98;;;9.90;99.90;;;;;;10511732;28;20043;-62
2022/11/24 18:49:46;;;;;;;9.13;2.50;;;9.90;99.90;;;;;;10516990;28;20024;-62
2022/11/24 18:54:46;;;;;;;9.52;2.25;;;9.90;99.90;;;;;;10525305;28;20030;-62
2022/11/24 18:59:47;;;;;;;5.97;1.92;;;9.80;99.90;;;;;;10500271;28;20510;-62
2022/11/24 19:04:48;;;;;;;9.77;2.40;;;9.80;99.90;;;;;;10506095;28;20020;-62
2022/11/24 19:09:48;;;;;;;7.45;2.05;;;9.80;99.90;;;;;;10492319;28;20051;-62
2022/11/24 19:14:49;;;;;;;7.25;2.10;;;9.90;99.90;;;;;;10493146;28;20306;-62
2022/11/24 19:19:50;;;;;;;3.83;2.05;;;9.80;99.90;;;;;;10489433;28;20028;-63
2022/11/24 19:24:51;;;;;;;7.72;2.70;;;9.80;99.90;;;;;;10487465;28;20412;-62
2022/11/24 19:29:53;;;;;;;7.10;2.00;;;9.70;99.90;;;;;;10490285;28;20029;-62
2022/11/24 19:34:54;;;;;;;6.78;2.15;;;9.70;99.90;;;;;;10490995;28;20028;-62
2022/11/24 19:39:55;;;;;;;6.85;2.42;;;9.70;99.90;;;;;;10487740;28;20036;-62
2022/11/24 19:44:58;;;;;;;8.80;3.15;;;9.70;99.90;;;;;;10487134;28;20107;-63
2022/11/24 19:49:58;;;;;;;8.20;2.00;;;9.70;99.90;;;;;;10495064;28;20024;-62
2022/11/24 19:54:59;;;;;;;6.90;2.63;;;9.70;99.90;;;;;;10487167;28;20393;-63
2022/11/24 20:00:00;;;;;;;7.10;2.15;;;9.70;99.90;;;;;;10489497;28;20039;-63
2022/11/24 20:05:01;;;;;;;11.55;2.10;;;9.70;99.90;;;;;;10497730;28;20020;-62
2022/11/24 20:10:02;;;;;;;5.38;2.00;;;9.70;99.90;;;;;;10496369;28;20032;-60
2022/11/24 20:15:03;;;;;;;8.05;2.22;;;9.70;99.90;;;;;;10493818;28;20028;-62
2022/11/24 20:20:04;;;;;;;6.15;2.03;;;9.70;99.90;;;;;;10484410;28;20032;-62
2022/11/24 20:25:06;;;;;;;7.53;2.38;;;9.70;99.90;;;;;;10492847;28;20117;-62
2022/11/24 20:30:08;;;;;;;9.77;2.20;;;9.70;99.90;;;;;;10486336;28;20531;-61
2022/11/24 20:35:08;;;;;;;7.10;2.13;;;9.60;99.90;;;;;;10492206;28;20024;-62
2022/11/24 20:40:09;;;;;;;9.57;2.10;;;9.60;99.90;;;;;;10489065;28;20496;-63
2022/11/24 20:45:10;;;;;;;5.90;2.17;;;9.60;99.90;;;;;;10497783;28;20017;-62
2022/11/24 20:50:11;;;;;;;5.30;1.73;;;9.60;99.90;;;;;;10490452;28;20389;-62
2022/11/24 20:55:12;;;;;;;8.82;2.70;;;9.30;99.90;;;;;;10486019;28;20020;-62
2022/11/24 21:00:12;;;;;;;9.40;2.78;;;9.60;99.90;;;;;;10486683;28;20123;-62
2022/11/24 21:05:13;;;;;;;4.15;2.03;;;9.60;99.90;;;;;;10489459;28;20541;-62
2022/11/24 21:10:14;;;;;;;8.77;2.30;;;9.60;99.90;;;;;;10488839;28;20028;-62
2022/11/24 21:15:15;;;;;;;10.43;2.33;;;9.60;99.90;;;;;;10490808;28;20028;-62
2022/11/24 21:20:15;;;;;;;7.70;2.28;;;9.60;99.90;;;;;;10509143;28;20035;-62
2022/11/24 21:25:16;;;;;;;8.95;2.10;;;9.60;99.90;;;;;;10505132;28;20025;-62
2022/11/24 21:30:17;;;;;;;9.68;2.13;;;9.50;99.90;;;;;;10507180;28;20074;-63
2022/11/24 21:35:19;;;;;;;6.90;2.17;;;9.50;99.90;;;;;;10503720;28;20090;-63
2022/11/24 21:40:20;;;;;;;5.43;1.88;;;9.50;99.90;;;;;;10499027;28;20082;-63
2022/11/24 21:45:20;;;;;;;6.90;1.98;;;9.50;99.90;;;;;;10505471;28;20028;-62
2022/11/24 21:50:22;;;;;;;7.82;2.47;;;9.50;99.90;;;;;;10522133;28;20101;-62
2022/11/24 21:55:22;;;;;;;8.68;1.92;;;9.70;99.90;;;;;;10524397;28;20055;-62
2022/11/24 22:00:23;;;;;;;10.70;2.22;;;9.50;99.90;;;;;;10502710;28;20044;-62
2022/11/24 22:05:24;;;;;;;3.70;1.83;;;9.50;99.90;;;;;;10511054;28;20754;-62
2022/11/24 22:10:25;;;;;;;10.18;2.78;;;9.50;99.90;;;;;;10522561;28;20028;-62
2022/11/24 22:15:25;;;;;;;7.75;1.92;;;9.50;99.90;;;;;;10510578;28;20496;-62
2022/11/24 22:20:26;;;;;;;6.65;1.90;;;9.50;99.90;;;;;;10519342;28;20036;-62
2022/11/24 22:25:27;;;;;;;6.28;1.80;;;9.50;99.90;;;;;;10530756;28;20115;-62
2022/11/24 22:30:27;;;;;;;7.00;2.00;;;9.50;99.90;;;;;;10531516;28;20020;-64
2022/11/24 22:35:28;;;;;;;6.68;2.17;;;9.50;99.90;;;;;;10523671;28;20467;-62
2022/11/24 22:40:29;;;;;;;5.50;1.55;;;9.50;99.90;;;;;;10522573;28;20043;-65
2022/11/24 22:45:30;;;;;;;7.32;1.80;;;9.10;99.90;;;;;;10524100;28;20031;-62
2022/11/24 22:50:30;;;;;;;6.88;1.95;;;9.50;99.90;;;;;;10514020;28;20390;-62
2022/11/24 22:55:33;;;;;;;5.40;1.73;;;9.50;99.90;;;;;;10532679;28;20024;-62
2022/11/24 23:00:34;;;;;;;5.13;1.77;;;9.50;99.90;;;;;;10528653;28;20089;-62
2022/11/24 23:05:35;;;;;;;7.18;2.20;;;9.50;99.90;;;;;;10515754;28;20024;-62
2022/11/24 23:10:35;;;;;;;6.32;1.70;;;9.50;99.90;;;;;;10523203;28;20040;-65
2022/11/24 23:15:36;;;;;;;5.72;2.00;;;9.50;99.90;;;;;;10519468;28;20056;-62
2022/11/24 23:20:37;;;;;;;7.10;1.90;;;9.50;99.90;;;;;;10505629;28;20364;-62
2022/11/24 23:25:37;;;;;;;6.65;2.22;;;9.50;99.90;;;;;;10524737;28;20027;-63
2022/11/24 23:30:38;;;;;;;5.25;2.00;;;9.50;99.90;;;;;;10529639;28;20035;-62
2022/11/24 23:35:39;;;;;;;4.05;1.77;;;9.50;99.90;;;;;;10482587;28;20031;-62
2022/11/24 23:40:39;;;;;;;4.72;1.80;;;9.50;99.90;;;;;;10521185;28;20053;-65
2022/11/24 23:45:40;;;;;;;4.93;1.73;;;9.50;99.90;;;;;;10529114;28;20028;-62
2022/11/24 23:50:41;;;;;;;8.20;2.25;;;9.50;99.90;;;;;;10510773;28;20071;-62
2022/11/24 23:55:42;;;;;;;6.57;1.95;;;9.50;99.90;;;;;;10528730;28;20028;-62
